Time,TemperatureF,DewpointF,PressureIn,WindDirection,WindDirectionDegrees,WindSpeedMPH,WindSpeedGustMPH,Humidity,HourlyPrecipIn,Conditions,Clouds,dailyrainin,SolarRadiationWatts/m^2,SoftwareType,DateUTC
2013-02-25 00:00:00,40.2,35.7,30.28,SSW,207,0.0,0.0,84,0.00,,,0.00,0001,Weather View 32 v70,2013-02-25 08:00:00,
2013-02-25 00:05:00,40.0,35.9,30.28,SW,229,0.0,0.0,85,0.00,,,0.00,0002,Weather View 32 v70,2013-02-25 08:05:00,
2013-02-25 00:10:00,39.8,36.0,30.28,SSW,207,0.0,0.0,86,0.00,,,0.00,0001,Weather View 32 v70,2013-02-25 08:10:00,
2013-02-25 00:20:00,39.4,35.8,30.29,SSE,162,0.0,0.0,87,0.00,,,0.00,0001,Weather View 32 v70,2013-02-25 08:20:00,
2013-02-25 00:25:00,39.2,35.7,30.29,SSE,162,0.0,0.0,87,0.00,,,0.00,0001,Weather View 32 v70,2013-02-25 08:25:00,
2013-02-25 00:30:00,39.2,35.9,30.29,WNW,297,0.0,0.0,88,0.00,,,0.00,0001,Weather View 32 v70,2013-02-25 08:30:00,
2013-02-25 00:35:00,39.3,36.3,30.29,WNW,297,0.0,1.0,89,0.00,,,0.00,0001,Weather View 32 v70,2013-02-25 08:35:00,
2013-02-25 00:45:00,38.9,36.2,30.29,SE,139,0.0,1.0,90,0.00,,,0.00,0001,Weather View 32 v70,2013-02-25 08:45:00,
2013-02-25 00:50:00,38.5,35.8,30.29,SE,139,0.0,1.0,90,0.00,,,0.00,0001,Weather View 32 v70,2013-02-25 08:50:00,
2013-02-25 00:55:00,38.3,35.6,30.30,South,184,0.0,1.0,90,0.00,,,0.00,0001,Weather View 32 v70,2013-02-25 08:55:00,
2013-02-25 01:00:00,38.2,35.8,30.30,South,184,0.0,1.0,91,0.00,,,0.00,0002,Weather View 32 v70,2013-02-25 09:00:00,
2013-02-25 01:05:00,38.2,35.8,30.30,SSW,207,0.0,1.0,91,0.00,,,0.00,0001,Weather View 32 v70,2013-02-25 09:05:00,
2013-02-25 01:15:00,38.5,36.1,30.30,South,184,0.0,1.0,91,0.00,,,0.00,0002,Weather View 32 v70,2013-02-25 09:15:00,
2013-02-25 01:20:00,38.4,36.0,30.30,SSW,207,0.0,1.0,91,0.00,,,0.00,0002,Weather View 32 v70,2013-02-25 09:20:00,
2013-02-25 01:25:00,38.3,35.9,30.30,South,184,0.0,1.0,91,0.00,,,0.00,0001,Weather View 32 v70,2013-02-25 09:25:00,
2013-02-25 01:30:00,38.4,36.3,30.31,SSW,207,0.0,1.0,92,0.00,,,0.00,0001,Weather View 32 v70,2013-02-25 09:30:00,
2013-02-25 01:40:00,38.1,36.0,30.30,SSE,162,0.0,0.0,92,0.00,,,0.00,0001,Weather View 32 v70,2013-02-25 09:40:00,
2013-02-25 01:45:00,37.9,35.8,30.30,SSE,162,0.0,0.0,92,0.00,,,0.00,0001,Weather View 32 v70,2013-02-25 09:45:00,
2013-02-25 01:50:00,37.6,35.5,30.30,SSE,162,0.0,0.0,92,0.00,,,0.00,0001,Weather View 32 v70,2013-02-25 09:50:00,
2013-02-25 01:55:00,37.4,35.6,30.30,South,184,0.0,0.0,93,0.00,,,0.00,0001,Weather View 32 v70,2013-02-25 09:55:00,
2013-02-25 02:05:00,37.6,36.0,30.30,NW,319,0.0,0.0,94,0.00,,,0.00,0001,Weather View 32 v70,2013-02-25 10:05:00,
2013-02-25 02:15:00,37.2,35.9,30.30,South,184,0.0,0.0,95,0.00,,,0.00,0001,Weather View 32 v70,2013-02-25 10:15:00,
2013-02-25 02:20:00,37.0,35.7,30.30,South,184,0.0,0.0,95,0.00,,,0.00,0002,Weather View 32 v70,2013-02-25 10:20:00,
2013-02-25 02:25:00,36.9,35.9,30.30,SSW,207,0.0,0.0,96,0.00,,,0.00,0001,Weather View 32 v70,2013-02-25 10:25:00,
2013-02-25 02:30:00,36.9,35.9,30.30,West,274,0.0,0.0,96,0.00,,,0.00,0002,Weather View 32 v70,2013-02-25 10:30:00,
2013-02-25 02:35:00,37.0,36.2,30.30,WSW,252,0.0,0.0,97,0.00,,,0.00,0001,Weather View 32 v70,2013-02-25 10:35:00,
2013-02-25 02:45:00,37.1,36.3,30.30,SSW,207,0.0,0.0,97,0.00,,,0.00,0001,Weather View 32 v70,2013-02-25 10:45:00,
2013-02-25 02:50:00,37.1,36.6,30.30,SSW,207,0.0,0.0,98,0.00,,,0.00,0001,Weather View 32 v70,2013-02-25 10:50:00,
2013-02-25 02:55:00,37.3,36.8,30.29,SSW,207,0.0,0.0,98,0.00,,,0.00,0001,Weather View 32 v70,2013-02-25 10:55:00,
2013-02-25 03:00:00,37.4,36.9,30.29,South,184,0.0,0.0,98,0.00,,,0.00,0001,Weather View 32 v70,2013-02-25 11:00:00,
2013-02-25 03:05:00,37.3,36.8,30.29,South,184,0.0,0.0,98,0.00,,,0.00,0001,Weather View 32 v70,2013-02-25 11:05:00,
2013-02-25 03:15:00,36.7,36.2,30.30,West,274,0.0,0.0,98,0.00,,,0.00,0001,Weather View 32 v70,2013-02-25 11:15:00,
2013-02-25 03:25:00,36.4,36.1,30.29,SSW,207,0.0,0.0,99,0.00,,,0.00,0001,Weather View 32 v70,2013-02-25 11:25:00,
2013-02-25 03:35:00,36.5,36.5,30.30,WSW,252,0.0,0.0,100,0.00,,,0.00,0001,Weather View 32 v70,2013-02-25 11:35:00,
2013-02-25 03:40:00,36.2,36.2,30.30,SW,229,0.0,0.0,100,0.00,,,0.00,0001,Weather View 32 v70,2013-02-25 11:40:00,
2013-02-25 03:45:00,36.0,36.0,30.30,SW,229,0.0,0.0,100,0.00,,,0.00,0001,Weather View 32 v70,2013-02-25 11:45:00,
2013-02-25 03:50:00,35.9,35.9,30.30,SW,229,0.0,0.0,100,0.00,,,0.00,0001,Weather View 32 v70,2013-02-25 11:50:00,
2013-02-25 04:00:00,35.8,35.8,30.30,SW,229,0.0,0.0,100,0.00,,,0.00,0001,Weather View 32 v70,2013-02-25 12:00:00,
2013-02-25 04:05:00,35.7,35.7,30.31,WSW,252,0.0,0.0,100,0.00,,,0.00,0001,Weather View 32 v70,2013-02-25 12:05:00,
2013-02-25 04:15:00,35.7,35.7,30.31,South,184,0.0,0.0,100,0.00,,,0.00,0001,Weather View 32 v70,2013-02-25 12:15:00,
2013-02-25 04:25:00,35.6,35.6,30.31,South,184,0.0,0.0,100,0.00,,,0.00,0001,Weather View 32 v70,2013-02-25 12:25:00,
2013-02-25 04:30:00,35.6,35.6,30.31,SSE,162,0.0,0.0,100,0.00,,,0.00,0001,Weather View 32 v70,2013-02-25 12:30:00,
2013-02-25 04:35:00,35.5,35.5,30.30,SE,139,0.0,0.0,100,0.00,,,0.00,0002,Weather View 32 v70,2013-02-25 12:35:00,
2013-02-25 04:40:00,35.2,35.2,30.30,SE,139,0.0,0.0,100,0.00,,,0.00,0001,Weather View 32 v70,2013-02-25 12:40:00,
2013-02-25 04:50:00,34.9,34.9,30.30,SSE,162,0.0,0.0,100,0.00,,,0.00,0001,Weather View 32 v70,2013-02-25 12:50:00,
2013-02-25 05:00:00,35.0,35.0,30.30,WNW,297,0.0,0.0,100,0.00,,,0.00,0001,Weather View 32 v70,2013-02-25 13:00:00,
2013-02-25 05:05:00,35.1,35.1,30.29,East,94,0.0,0.0,100,0.00,,,0.00,0002,Weather View 32 v70,2013-02-25 13:05:00,
2013-02-25 05:10:00,35.0,35.0,30.30,ESE,117,0.0,0.0,100,0.00,,,0.00,0001,Weather View 32 v70,2013-02-25 13:10:00,
2013-02-25 05:20:00,34.9,34.9,30.29,SW,229,0.0,0.0,100,0.00,,,0.00,0001,Weather View 32 v70,2013-02-25 13:20:00,
2013-02-25 05:25:00,34.9,34.9,30.29,SSW,207,0.0,1.0,100,0.00,,,0.00,0002,Weather View 32 v70,2013-02-25 13:25:00,
2013-02-25 05:35:00,34.8,34.8,30.29,South,184,0.0,1.0,100,0.00,,,0.00,0002,Weather View 32 v70,2013-02-25 13:35:00,
2013-02-25 05:40:00,34.9,34.9,30.29,SSE,162,0.0,1.0,100,0.00,,,0.00,0001,Weather View 32 v70,2013-02-25 13:40:00,
2013-02-25 05:45:00,34.9,34.9,30.29,SSE,162,0.0,1.0,100,0.00,,,0.00,0002,Weather View 32 v70,2013-02-25 13:45:00,
2013-02-25 05:50:00,35.1,35.1,30.30,NW,319,0.0,1.0,100,0.00,,,0.00,0001,Weather View 32 v70,2013-02-25 13:50:00,
2013-02-25 05:55:00,34.9,34.9,30.30,WNW,297,0.0,1.0,100,0.00,,,0.00,0001,Weather View 32 v70,2013-02-25 13:55:00,
2013-02-25 06:05:00,34.9,34.9,30.30,WNW,297,0.0,1.0,100,0.00,,,0.00,0001,Weather View 32 v70,2013-02-25 14:05:00,
2013-02-25 06:15:00,34.6,34.6,30.30,SSE,162,0.0,1.0,100,0.00,,,0.00,0002,Weather View 32 v70,2013-02-25 14:15:00,
2013-02-25 06:20:00,34.4,34.4,30.30,SSE,162,0.0,1.0,100,0.00,,,0.00,0002,Weather View 32 v70,2013-02-25 14:20:00,
2013-02-25 06:30:00,34.6,34.6,30.30,ESE,117,0.0,0.0,100,0.00,,,0.00,0002,Weather View 32 v70,2013-02-25 14:30:00,
2013-02-25 06:40:00,34.6,34.6,30.30,SSW,207,0.0,0.0,100,0.00,,,0.00,0005,Weather View 32 v70,2013-02-25 14:40:00,
2013-02-25 06:45:00,34.8,34.8,30.30,South,184,0.0,0.0,100,0.00,,,0.00,0008,Weather View 32 v70,2013-02-25 14:45:00,
2013-02-25 06:50:00,34.8,34.8,30.30,SSE,162,0.0,0.0,100,0.00,,,0.00,0011,Weather View 32 v70,2013-02-25 14:50:00,
2013-02-25 06:55:00,34.9,34.9,30.30,SSE,162,0.0,0.0,100,0.00,,,0.00,0038,Weather View 32 v70,2013-02-25 14:55:00,
2013-02-25 07:00:00,34.9,34.9,30.30,South,184,0.0,0.0,100,0.00,,,0.00,0052,Weather View 32 v70,2013-02-25 15:00:00,
2013-02-25 07:05:00,35.2,35.2,30.31,West,274,0.0,0.0,100,0.00,,,0.00,0065,Weather View 32 v70,2013-02-25 15:05:00,
2013-02-25 07:15:00,35.9,35.9,30.31,NW,319,0.0,1.0,100,0.00,,,0.00,0099,Weather View 32 v70,2013-02-25 15:15:00,
2013-02-25 07:20:00,36.3,36.3,30.32,NNW,342,0.0,1.0,100,0.00,,,0.00,0113,Weather View 32 v70,2013-02-25 15:20:00,
2013-02-25 07:30:00,37.5,37.5,30.32,ESE,117,0.0,1.0,100,0.00,,,0.00,0147,Weather View 32 v70,2013-02-25 15:30:00,
2013-02-25 07:35:00,38.3,38.3,30.32,ESE,117,0.0,1.0,100,0.00,,,0.00,0163,Weather View 32 v70,2013-02-25 15:35:00,
2013-02-25 07:40:00,38.9,38.9,30.33,ESE,117,0.0,1.0,100,0.00,,,0.00,0177,Weather View 32 v70,2013-02-25 15:40:00,
2013-02-25 07:45:00,39.7,39.7,30.33,ESE,117,0.0,1.0,100,0.00,,,0.00,0192,Weather View 32 v70,2013-02-25 15:45:00,
2013-02-25 07:50:00,40.1,40.1,30.33,SE,139,0.0,1.0,100,0.00,,,0.00,0206,Weather View 32 v70,2013-02-25 15:50:00,
2013-02-25 08:00:00,40.6,40.6,30.33,SSE,162,0.0,2.0,100,0.00,,,0.00,0234,Weather View 32 v70,2013-02-25 16:00:00,
2013-02-25 08:05:00,41.0,41.0,30.32,ESE,117,0.0,2.0,100,0.00,,,0.00,0248,Weather View 32 v70,2013-02-25 16:05:00,
2013-02-25 08:10:00,41.6,41.6,30.32,ESE,117,1.0,3.0,100,0.00,,,0.00,0260,Weather View 32 v70,2013-02-25 16:10:00,
2013-02-25 08:20:00,42.4,42.4,30.32,ESE,117,4.0,4.0,100,0.00,,,0.00,0284,Weather View 32 v70,2013-02-25 16:20:00,
2013-02-25 08:30:00,42.9,42.1,30.32,SE,139,2.0,5.0,97,0.00,,,0.00,0311,Weather View 32 v70,2013-02-25 16:30:00,
2013-02-25 08:35:00,43.3,42.2,30.32,SSE,162,2.0,5.0,96,0.00,,,0.00,0321,Weather View 32 v70,2013-02-25 16:35:00,
2013-02-25 08:40:00,43.7,42.4,30.32,ESE,117,4.0,5.0,95,0.00,,,0.00,0339,Weather View 32 v70,2013-02-25 16:40:00,
2013-02-25 08:50:00,44.7,42.2,30.31,East,94,3.0,5.0,91,0.00,,,0.00,0349,Weather View 32 v70,2013-02-25 16:50:00,
2013-02-25 08:55:00,45.3,42.5,30.31,SE,139,3.0,5.0,90,0.00,,,0.00,0371,Weather View 32 v70,2013-02-25 16:55:00,
2013-02-25 09:00:00,45.6,42.5,30.31,SE,139,1.0,6.0,89,0.00,,,0.00,0382,Weather View 32 v70,2013-02-25 17:00:00,
2013-02-25 09:05:00,46.1,42.7,30.31,SE,139,1.0,6.0,88,0.00,,,0.00,0395,Weather View 32 v70,2013-02-25 17:05:00,
2013-02-25 09:10:00,46.9,43.5,30.31,ESE,117,3.0,6.0,88,0.00,,,0.00,0400,Weather View 32 v70,2013-02-25 17:10:00,
2013-02-25 09:20:00,48.2,44.8,30.31,SE,139,2.0,6.0,88,0.00,,,0.00,0418,Weather View 32 v70,2013-02-25 17:20:00,
2013-02-25 09:25:00,48.3,44.6,30.30,South,184,2.0,6.0,87,0.00,,,0.00,0427,Weather View 32 v70,2013-02-25 17:25:00,
2013-02-25 09:30:00,48.5,44.5,30.30,East,94,4.0,6.0,86,0.00,,,0.00,0442,Weather View 32 v70,2013-02-25 17:30:00,
2013-02-25 09:40:00,49.6,45.0,30.29,ESE,117,3.0,6.0,84,0.00,,,0.00,0457,Weather View 32 v70,2013-02-25 17:40:00,
2013-02-25 09:45:00,49.8,45.2,30.29,SE,139,4.0,6.0,84,0.00,,,0.00,0471,Weather View 32 v70,2013-02-25 17:45:00,
2013-02-25 09:50:00,50.0,45.0,30.29,East,94,3.0,6.0,83,0.00,,,0.00,0483,Weather View 32 v70,2013-02-25 17:50:00,
2013-02-25 09:55:00,51.0,46.0,30.29,SSW,207,2.0,6.0,83,0.00,,,0.00,0493,Weather View 32 v70,2013-02-25 17:55:00,
2013-02-25 10:00:00,51.6,46.3,30.29,SSE,162,1.0,6.0,82,0.00,,,0.00,0506,Weather View 32 v70,2013-02-25 18:00:00,
2013-02-25 10:10:00,52.9,46.6,30.29,NNE,27,1.0,6.0,79,0.00,,,0.00,0524,Weather View 32 v70,2013-02-25 18:10:00,
2013-02-25 10:15:00,53.0,46.0,30.28,NW,319,1.0,6.0,77,0.00,,,0.00,0532,Weather View 32 v70,2013-02-25 18:15:00,
2013-02-25 10:20:00,53.4,46.0,30.28,East,94,1.0,6.0,76,0.00,,,0.00,0543,Weather View 32 v70,2013-02-25 18:20:00,
2013-02-25 10:30:00,53.5,45.8,30.28,NNE,27,1.0,6.0,75,0.00,,,0.00,0562,Weather View 32 v70,2013-02-25 18:30:00,
2013-02-25 10:35:00,53.9,45.8,30.28,NNE,27,2.0,6.0,74,0.00,,,0.00,0570,Weather View 32 v70,2013-02-25 18:35:00,
2013-02-25 10:40:00,54.5,46.4,30.28,WNW,297,3.0,6.0,74,0.00,,,0.00,0576,Weather View 32 v70,2013-02-25 18:40:00,
2013-02-25 10:45:00,54.8,46.3,30.28,NE,49,4.0,6.0,73,0.00,,,0.00,0561,Weather View 32 v70,2013-02-25 18:45:00,
2013-02-25 10:50:00,55.3,46.8,30.28,NW,319,4.0,5.0,73,0.00,,,0.00,0577,Weather View 32 v70,2013-02-25 18:50:00,
2013-02-25 10:55:00,55.8,47.6,30.28,South,184,0.0,5.0,74,0.00,,,0.00,0581,Weather View 32 v70,2013-02-25 18:55:00,
2013-02-25 11:05:00,57.0,48.8,30.27,NNE,27,2.0,5.0,74,0.00,,,0.00,0602,Weather View 32 v70,2013-02-25 19:05:00,
2013-02-25 11:10:00,57.7,49.1,30.27,North,4,0.0,5.0,73,0.00,,,0.00,0606,Weather View 32 v70,2013-02-25 19:10:00,
2013-02-25 11:15:00,58.8,49.8,30.27,East,94,2.0,5.0,72,0.00,,,0.00,0613,Weather View 32 v70,2013-02-25 19:15:00,
2013-02-25 11:25:00,59.7,48.7,30.27,SSW,207,3.0,5.0,67,0.00,,,0.00,0624,Weather View 32 v70,2013-02-25 19:25:00,
2013-02-25 11:30:00,60.0,48.2,30.26,South,184,2.0,9.0,65,0.00,,,0.00,0629,Weather View 32 v70,2013-02-25 19:30:00,
2013-02-25 11:35:00,59.7,47.1,30.26,WNW,297,4.0,9.0,63,0.00,,,0.00,0634,Weather View 32 v70,2013-02-25 19:35:00,
2013-02-25 11:40:00,60.3,48.0,30.26,NW,319,6.0,9.0,64,0.00,,,0.00,0640,Weather View 32 v70,2013-02-25 19:40:00,
2013-02-25 11:45:00,59.9,47.2,30.26,West,274,3.0,9.0,63,0.00,,,0.00,0638,Weather View 32 v70,2013-02-25 19:45:00,
2013-02-25 11:55:00,59.9,48.5,30.26,SW,229,3.0,11.0,66,0.00,,,0.00,0642,Weather View 32 v70,2013-02-25 19:55:00,
2013-02-25 12:00:00,59.2,48.2,30.26,SSW,207,4.0,11.0,67,0.00,,,0.00,0643,Weather View 32 v70,2013-02-25 20:00:00,
2013-02-25 12:05:00,58.6,48.4,30.26,North,4,8.0,11.0,69,0.00,,,0.00,0642,Weather View 32 v70,2013-02-25 20:05:00,
2013-02-25 12:10:00,58.3,48.9,30.26,NNE,27,2.0,11.0,71,0.00,,,0.00,0646,Weather View 32 v70,2013-02-25 20:10:00,
2013-02-25 12:20:00,59.1,49.7,30.26,North,4,2.0,11.0,71,0.00,,,0.00,0657,Weather View 32 v70,2013-02-25 20:20:00,
2013-02-25 12:25:00,58.7,49.3,30.26,WSW,252,1.0,11.0,71,0.00,,,0.00,0589,Weather View 32 v70,2013-02-25 20:25:00,
2013-02-25 12:30:00,59.2,49.8,30.25,NNW,342,3.0,11.0,71,0.00,,,0.00,0615,Weather View 32 v70,2013-02-25 20:30:00,
2013-02-25 12:40:00,61.1,51.2,30.24,South,184,3.0,11.0,70,0.00,,,0.00,0646,Weather View 32 v70,2013-02-25 20:40:00,
2013-02-25 12:45:00,61.2,51.3,30.24,SW,229,3.0,11.0,70,0.00,,,0.00,0646,Weather View 32 v70,2013-02-25 20:45:00,
2013-02-25 12:50:00,60.2,50.7,30.24,WSW,252,6.0,11.0,71,0.00,,,0.00,0645,Weather View 32 v70,2013-02-25 20:50:00,
2013-02-25 12:55:00,59.4,50.0,30.24,NNE,27,2.0,11.0,71,0.00,,,0.00,0640,Weather View 32 v70,2013-02-25 20:55:00,
2013-02-25 13:00:00,60.5,51.4,30.24,SSE,162,3.0,11.0,72,0.00,,,0.00,0630,Weather View 32 v70,2013-02-25 21:00:00,
2013-02-25 13:10:00,59.6,50.5,30.23,North,4,4.0,10.0,72,0.00,,,0.00,0629,Weather View 32 v70,2013-02-25 21:10:00,
2013-02-25 13:15:00,60.4,51.7,30.23,SSW,207,1.0,10.0,73,0.00,,,0.00,0626,Weather View 32 v70,2013-02-25 21:15:00,
2013-02-25 13:20:00,60.6,51.9,30.24,NW,319,4.0,10.0,73,0.00,,,0.00,0625,Weather View 32 v70,2013-02-25 21:20:00,
2013-02-25 13:30:00,60.6,51.5,30.23,North,4,0.0,10.0,72,0.00,,,0.00,0616,Weather View 32 v70,2013-02-25 21:30:00,
2013-02-25 13:35:00,60.1,51.0,30.23,SW,229,6.0,11.0,72,0.00,,,0.00,0595,Weather View 32 v70,2013-02-25 21:35:00,
2013-02-25 13:40:00,60.3,50.8,30.23,WSW,252,5.0,11.0,71,0.00,,,0.00,0614,Weather View 32 v70,2013-02-25 21:40:00,
2013-02-25 13:45:00,60.9,51.4,30.23,ESE,117,1.0,11.0,71,0.00,,,0.00,0604,Weather View 32 v70,2013-02-25 21:45:00,
2013-02-25 13:55:00,61.5,51.2,30.23,NNW,342,4.0,11.0,69,0.00,,,0.00,0588,Weather View 32 v70,2013-02-25 21:55:00,
2013-02-25 14:00:00,61.7,51.4,30.23,WNW,297,2.0,11.0,69,0.00,,,0.00,0595,Weather View 32 v70,2013-02-25 22:00:00,
2013-02-25 14:05:00,61.9,51.6,30.23,NW,319,3.0,11.0,69,0.00,,,0.00,0413,Weather View 32 v70,2013-02-25 22:05:00,
2013-02-25 14:13:00,60.7,50.0,30.23,West,274,4.0,11.0,68,0.00,,,0.00,0543,Weather View 32 v70,2013-02-25 22:13:00,
2013-02-25 14:20:00,61.5,51.6,30.23,WSW,252,4.0,11.0,70,0.00,,,0.00,0544,Weather View 32 v70,2013-02-25 22:20:00,
2013-02-25 14:30:00,61.3,50.6,30.23,NW,319,3.0,11.0,68,0.00,,,0.00,0525,Weather View 32 v70,2013-02-25 22:30:00,
2013-02-25 14:35:00,60.8,50.1,30.23,NW,319,6.0,10.0,68,0.00,,,0.00,0522,Weather View 32 v70,2013-02-25 22:35:00,
2013-02-25 14:40:00,61.6,51.3,30.23,SW,229,4.0,10.0,69,0.00,,,0.00,0514,Weather View 32 v70,2013-02-25 22:40:00,
2013-02-25 14:45:00,61.3,50.6,30.23,NNW,342,4.0,10.0,68,0.00,,,0.00,0506,Weather View 32 v70,2013-02-25 22:45:00,
2013-02-25 14:50:00,61.2,50.5,30.23,WNW,297,3.0,10.0,68,0.00,,,0.00,0490,Weather View 32 v70,2013-02-25 22:50:00,
2013-02-25 15:00:00,62.0,50.9,30.22,North,4,3.0,10.0,67,0.00,,,0.00,0476,Weather View 32 v70,2013-02-25 23:00:00,
2013-02-25 15:05:00,62.1,51.0,30.22,NE,49,3.0,10.0,67,0.00,,,0.00,0466,Weather View 32 v70,2013-02-25 23:05:00,
2013-02-25 15:10:00,62.4,51.3,30.22,West,274,3.0,9.0,67,0.00,,,0.00,0455,Weather View 32 v70,2013-02-25 23:10:00,
2013-02-25 15:20:00,62.0,50.9,30.21,WNW,297,7.0,9.0,67,0.00,,,0.00,0434,Weather View 32 v70,2013-02-25 23:20:00,
2013-02-25 15:30:00,62.2,51.1,30.21,NW,319,3.0,9.0,67,0.00,,,0.00,0411,Weather View 32 v70,2013-02-25 23:30:00,
2013-02-25 15:35:00,62.2,50.7,30.21,WNW,297,3.0,9.0,66,0.00,,,0.00,0403,Weather View 32 v70,2013-02-25 23:35:00,
2013-02-25 15:40:00,61.8,50.3,30.21,NNW,342,5.0,9.0,66,0.00,,,0.00,0392,Weather View 32 v70,2013-02-25 23:40:00,
2013-02-25 15:45:00,62.0,50.9,30.21,WNW,297,6.0,9.0,67,0.00,,,0.00,0381,Weather View 32 v70,2013-02-25 23:45:00,
2013-02-25 15:55:00,61.9,51.2,30.21,West,274,4.0,9.0,68,0.00,,,0.00,0356,Weather View 32 v70,2013-02-25 23:55:00,
2013-02-25 16:00:00,61.4,50.7,30.21,NW,319,4.0,9.0,68,0.00,,,0.00,0345,Weather View 32 v70,2013-02-26 00:00:00,
2013-02-25 16:05:00,61.6,50.9,30.21,WNW,297,6.0,10.0,68,0.00,,,0.00,0334,Weather View 32 v70,2013-02-26 00:05:00,
2013-02-25 16:10:00,61.4,50.7,30.20,WSW,252,3.0,10.0,68,0.00,,,0.00,0324,Weather View 32 v70,2013-02-26 00:10:00,
2013-02-25 16:15:00,61.9,51.6,30.20,SW,229,3.0,10.0,69,0.00,,,0.00,0312,Weather View 32 v70,2013-02-26 00:15:00,
2013-02-25 16:25:00,61.2,51.3,30.20,WNW,297,4.0,10.0,70,0.00,,,0.00,0285,Weather View 32 v70,2013-02-26 00:25:00,
2013-02-25 16:30:00,61.4,51.5,30.20,NW,319,4.0,10.0,70,0.00,,,0.00,0272,Weather View 32 v70,2013-02-26 00:30:00,
2013-02-25 16:35:00,61.4,51.1,30.20,WNW,297,3.0,10.0,69,0.00,,,0.00,0261,Weather View 32 v70,2013-02-26 00:35:00,
2013-02-25 16:45:00,61.0,50.7,30.19,WNW,297,3.0,10.0,69,0.00,,,0.00,0032,Weather View 32 v70,2013-02-26 00:45:00,
2013-02-25 16:50:00,60.4,50.2,30.19,NW,319,4.0,10.0,69,0.00,,,0.00,0029,Weather View 32 v70,2013-02-26 00:50:00,
2013-02-25 16:55:00,60.1,50.3,30.19,West,274,2.0,10.0,70,0.00,,,0.00,0028,Weather View 32 v70,2013-02-26 00:55:00,
2013-02-25 17:00:00,59.2,50.2,30.19,West,274,2.0,10.0,72,0.00,,,0.00,0026,Weather View 32 v70,2013-02-26 01:00:00,
2013-02-25 17:10:00,58.0,49.7,30.19,WSW,252,3.0,9.0,74,0.00,,,0.00,0023,Weather View 32 v70,2013-02-26 01:10:00,
2013-02-25 17:15:00,57.8,49.9,30.19,WSW,252,1.0,8.0,75,0.00,,,0.00,0021,Weather View 32 v70,2013-02-26 01:15:00,
2013-02-25 17:20:00,57.4,49.9,30.19,West,274,2.0,8.0,76,0.00,,,0.00,0020,Weather View 32 v70,2013-02-26 01:20:00,
2013-02-25 17:30:00,56.9,49.7,30.19,WSW,252,2.0,7.0,77,0.00,,,0.00,0017,Weather View 32 v70,2013-02-26 01:30:00,
2013-02-25 17:35:00,56.9,50.1,30.19,SSW,207,1.0,6.0,78,0.00,,,0.00,0015,Weather View 32 v70,2013-02-26 01:35:00,
2013-02-25 17:40:00,56.7,49.9,30.19,SW,229,1.0,6.0,78,0.00,,,0.00,0013,Weather View 32 v70,2013-02-26 01:40:00,
2013-02-25 17:45:00,56.7,50.2,30.19,WSW,252,3.0,6.0,79,0.00,,,0.00,0011,Weather View 32 v70,2013-02-26 01:45:00,
2013-02-25 17:50:00,56.6,50.1,30.19,SW,229,1.0,6.0,79,0.00,,,0.00,0009,Weather View 32 v70,2013-02-26 01:50:00,
2013-02-25 18:00:00,55.4,49.0,30.19,West,274,1.0,6.0,79,0.00,,,0.00,0005,Weather View 32 v70,2013-02-26 02:00:00,
2013-02-25 18:05:00,55.6,49.5,30.19,ENE,72,0.0,6.0,80,0.00,,,0.00,0003,Weather View 32 v70,2013-02-26 02:05:00,
2013-02-25 18:10:00,54.9,48.8,30.19,SW,229,1.0,6.0,80,0.00,,,0.00,0002,Weather View 32 v70,2013-02-26 02:10:00,
2013-02-25 18:16:00,54.3,48.6,30.20,SW,229,1.0,6.0,81,0.00,,,0.00,0002,Weather View 32 v70,2013-02-26 02:16:00,
2013-02-25 18:25:00,53.6,48.2,30.20,SSE,162,0.0,6.0,82,0.00,,,0.00,0002,Weather View 32 v70,2013-02-26 02:25:00,
2013-02-25 18:30:00,52.8,47.8,30.20,WNW,297,2.0,6.0,83,0.00,,,0.00,0001,Weather View 32 v70,2013-02-26 02:30:00,
2013-02-25 18:35:00,52.3,47.6,30.20,SW,229,1.0,6.0,84,0.00,,,0.00,0001,Weather View 32 v70,2013-02-26 02:35:00,
2013-02-25 18:40:00,51.9,47.5,30.20,West,274,1.0,6.0,85,0.00,,,0.00,0001,Weather View 32 v70,2013-02-26 02:40:00,
2013-02-25 18:45:00,51.6,47.5,30.20,WSW,252,0.0,5.0,86,0.00,,,0.00,0001,Weather View 32 v70,2013-02-26 02:45:00,
2013-02-25 18:50:00,51.2,47.5,30.20,SSW,207,0.0,4.0,87,0.00,,,0.00,0001,Weather View 32 v70,2013-02-26 02:50:00,
2013-02-25 18:55:00,50.7,47.0,30.21,SSW,207,0.0,3.0,87,0.00,,,0.00,0001,Weather View 32 v70,2013-02-26 02:55:00,
2013-02-25 19:05:00,50.0,46.6,30.21,SW,229,1.0,3.0,88,0.00,,,0.00,0001,Weather View 32 v70,2013-02-26 03:05:00,
2013-02-25 19:10:00,49.8,46.7,30.21,SSW,207,0.0,3.0,89,0.00,,,0.00,0001,Weather View 32 v70,2013-02-26 03:10:00,
2013-02-25 19:15:00,49.6,46.5,30.21,SSW,207,0.0,3.0,89,0.00,,,0.00,0001,Weather View 32 v70,2013-02-26 03:15:00,
2013-02-25 19:20:00,49.4,46.6,30.22,WSW,252,0.0,3.0,90,0.00,,,0.00,0001,Weather View 32 v70,2013-02-26 03:20:00,
2013-02-25 19:30:00,49.1,46.9,30.22,West,274,0.0,3.0,92,0.00,,,0.00,0001,Weather View 32 v70,2013-02-26 03:30:00,
2013-02-25 19:40:00,48.6,46.9,30.22,SE,139,0.0,3.0,94,0.00,,,0.00,0001,Weather View 32 v70,2013-02-26 03:40:00,
2013-02-25 19:45:00,48.1,46.7,30.22,SSW,207,0.0,3.0,95,0.00,,,0.00,0002,Weather View 32 v70,2013-02-26 03:45:00,
2013-02-25 19:50:00,47.8,46.7,30.22,South,184,0.0,3.0,96,0.00,,,0.00,0001,Weather View 32 v70,2013-02-26 03:50:00,
2013-02-25 20:00:00,47.3,46.8,30.22,SSW,207,0.0,3.0,98,0.00,,,0.00,0001,Weather View 32 v70,2013-02-26 04:00:00,
2013-02-25 20:05:00,47.2,46.9,30.22,South,184,0.0,3.0,99,0.00,,,0.00,0001,Weather View 32 v70,2013-02-26 04:05:00,
2013-02-25 20:10:00,47.0,46.7,30.22,SSW,207,0.0,1.0,99,0.00,,,0.00,0002,Weather View 32 v70,2013-02-26 04:10:00,
2013-02-25 20:15:00,46.7,46.7,30.22,SSW,207,0.0,0.0,100,0.00,,,0.00,0001,Weather View 32 v70,2013-02-26 04:15:00,
2013-02-25 20:20:00,46.2,46.2,30.22,NW,319,0.0,0.0,100,0.00,,,0.00,0001,Weather View 32 v70,2013-02-26 04:20:00,
2013-02-25 20:30:00,45.8,45.8,30.22,SSW,207,0.0,0.0,100,0.00,,,0.00,0001,Weather View 32 v70,2013-02-26 04:30:00,
2013-02-25 20:35:00,45.7,45.7,30.22,SSE,162,0.0,0.0,100,0.00,,,0.00,0001,Weather View 32 v70,2013-02-26 04:35:00,
2013-02-25 20:45:00,45.2,45.2,30.22,SSW,207,0.0,0.0,100,0.00,,,0.00,0001,Weather View 32 v70,2013-02-26 04:45:00,
2013-02-25 20:55:00,44.8,44.8,30.22,SSW,207,0.0,0.0,100,0.00,,,0.00,0001,Weather View 32 v70,2013-02-26 04:55:00,
2013-02-25 21:05:00,44.2,44.2,30.22,WNW,297,0.0,0.0,100,0.00,,,0.00,0002,Weather View 32 v70,2013-02-26 05:05:00,
2013-02-25 21:10:00,44.1,44.1,30.23,SW,229,0.0,0.0,100,0.00,,,0.00,0001,Weather View 32 v70,2013-02-26 05:10:00,
2013-02-25 21:15:00,43.9,43.9,30.23,SW,229,0.0,0.0,100,0.00,,,0.00,0002,Weather View 32 v70,2013-02-26 05:15:00,
2013-02-25 21:25:00,43.7,43.7,30.23,SW,229,0.0,0.0,100,0.00,,,0.00,0001,Weather View 32 v70,2013-02-26 05:25:00,
2013-02-25 21:30:00,43.6,43.6,30.23,SW,229,0.0,0.0,100,0.00,,,0.00,0001,Weather View 32 v70,2013-02-26 05:30:00,
2013-02-25 21:40:00,43.3,43.3,30.24,SW,229,0.0,0.0,100,0.00,,,0.00,0002,Weather View 32 v70,2013-02-26 05:40:00,
2013-02-25 21:45:00,43.5,43.5,30.23,NW,319,0.0,0.0,100,0.00,,,0.00,0002,Weather View 32 v70,2013-02-26 05:45:00,
2013-02-25 21:55:00,43.4,43.4,30.24,SSW,207,0.0,0.0,100,0.00,,,0.00,0001,Weather View 32 v70,2013-02-26 05:55:00,
2013-02-25 22:00:00,43.3,43.3,30.24,SSW,207,1.0,2.0,100,0.00,,,0.00,0001,Weather View 32 v70,2013-02-26 06:00:00,
2013-02-25 22:05:00,43.6,43.6,30.24,SE,139,0.0,2.0,100,0.00,,,0.00,0001,Weather View 32 v70,2013-02-26 06:05:00,
2013-02-25 22:10:00,43.5,43.5,30.24,SE,139,0.0,2.0,100,0.00,,,0.00,0002,Weather View 32 v70,2013-02-26 06:10:00,
2013-02-25 22:15:00,43.2,43.2,30.24,SSE,162,0.0,2.0,100,0.00,,,0.00,0001,Weather View 32 v70,2013-02-26 06:15:00,
2013-02-25 22:25:00,43.0,43.0,30.24,South,184,0.0,2.0,100,0.00,,,0.00,0001,Weather View 32 v70,2013-02-26 06:25:00,
2013-02-25 22:30:00,42.8,42.8,30.23,West,274,0.0,2.0,100,0.00,,,0.00,0001,Weather View 32 v70,2013-02-26 06:30:00,
2013-02-25 22:35:00,42.8,42.8,30.24,North,4,0.0,2.0,100,0.00,,,0.00,0001,Weather View 32 v70,2013-02-26 06:35:00,
2013-02-25 22:40:00,42.6,42.6,30.24,SSW,207,0.0,2.0,100,0.00,,,0.00,0001,Weather View 32 v70,2013-02-26 06:40:00,
2013-02-25 22:45:00,42.6,42.6,30.24,WSW,252,0.0,2.0,100,0.00,,,0.00,0002,Weather View 32 v70,2013-02-26 06:45:00,
2013-02-25 22:50:00,42.8,42.8,30.24,WNW,297,0.0,2.0,100,0.00,,,0.00,0001,Weather View 32 v70,2013-02-26 06:50:00,
2013-02-25 23:00:00,42.4,42.4,30.24,ESE,117,0.0,2.0,100,0.00,,,0.00,0001,Weather View 32 v70,2013-02-26 07:00:00,
2013-02-25 23:05:00,42.0,42.0,30.24,SW,229,2.0,3.0,100,0.00,,,0.00,0001,Weather View 32 v70,2013-02-26 07:05:00,
2013-02-25 23:10:00,42.5,42.5,30.24,NNE,27,0.0,3.0,100,0.00,,,0.00,0001,Weather View 32 v70,2013-02-26 07:10:00,
2013-02-25 23:15:00,42.6,42.6,30.24,East,94,0.0,3.0,100,0.00,,,0.00,0001,Weather View 32 v70,2013-02-26 07:15:00,
2013-02-25 23:20:00,41.8,41.8,30.24,SW,229,3.0,3.0,100,0.00,,,0.00,0001,Weather View 32 v70,2013-02-26 07:20:00,
2013-02-25 23:25:00,42.0,42.0,30.24,SW,229,0.0,3.0,100,0.00,,,0.00,0002,Weather View 32 v70,2013-02-26 07:25:00,
2013-02-25 23:35:00,41.8,41.8,30.24,SSW,207,0.0,3.0,100,0.00,,,0.00,0001,Weather View 32 v70,2013-02-26 07:35:00,
2013-02-25 23:40:00,41.7,41.7,30.24,South,184,0.0,3.0,100,0.00,,,0.00,0002,Weather View 32 v70,2013-02-26 07:40:00,
2013-02-25 23:50:00,41.2,41.2,30.24,West,274,0.0,3.0,100,0.00,,,0.00,0001,Weather View 32 v70,2013-02-26 07:50:00,
2013-02-25 23:55:00,41.0,41.0,30.24,SE,139,0.0,3.0,100,0.00,,,0.00,0001,Weather View 32 v70,2013-02-26 07:55:00,